Time;durP1;ratioP1;P1;durP2;ratioP2;P2;SDS_P1;SDS_P2;PMS_P1;PMS_P2;Temp;Humidity;BMP_temperature;BMP_pressure;BME280_temperature;BME280_humidity;BME280_pressure;Samples;Min_cycle;Max_cycle;Signal;HPM_P1;HPM_P2
2023/09/04 00:00:00;;;;;;;2.83;2.38;;;16.30;99.90;;;;;;4992381;28;20073;-38
2023/09/04 00:02:26;;;;;;;5.05;2.33;;;16.30;99.90;;;;;;4996225;28;20034;-39
2023/09/04 00:04:52;;;;;;;2.88;2.00;;;16.20;99.90;;;;;;4994287;28;20479;-39
2023/09/04 00:07:19;;;;;;;7.35;2.50;;;16.20;99.90;;;;;;4978743;28;20034;-38
2023/09/04 00:09:44;;;;;;;2.60;2.40;;;16.10;99.90;;;;;;4986020;28;20029;-39
2023/09/04 00:12:10;;;;;;;3.67;2.58;;;16.10;99.90;;;;;;4995059;28;20117;-39
2023/09/04 00:14:36;;;;;;;2.47;2.28;;;16.10;99.90;;;;;;4993900;28;20457;-41
2023/09/04 00:17:01;;;;;;;3.67;2.35;;;16.10;99.90;;;;;;4994965;28;20023;-40
2023/09/04 00:19:27;;;;;;;4.53;2.53;;;16.10;99.90;;;;;;4996079;28;20029;-38
2023/09/04 00:21:52;;;;;;;4.50;2.67;;;16.10;99.90;;;;;;4994986;28;20022;-40
2023/09/04 00:24:20;;;;;;;3.03;2.10;;;16.00;99.90;;;;;;4993827;28;20138;-38
2023/09/04 00:26:46;;;;;;;2.97;2.13;;;16.00;99.90;;;;;;4995720;28;20049;-38
2023/09/04 00:29:11;;;;;;;3.63;2.53;;;16.00;99.90;;;;;;4994920;28;20030;-39
2023/09/04 00:31:37;;;;;;;3.28;2.38;;;16.00;99.90;;;;;;4994209;28;20130;-38
2023/09/04 00:34:03;;;;;;;2.80;2.58;;;16.00;99.90;;;;;;4994131;28;20399;-40
2023/09/04 00:36:28;;;;;;;2.63;2.38;;;15.90;99.90;;;;;;4995015;28;20471;-38
2023/09/04 00:38:54;;;;;;;2.78;2.58;;;15.90;99.90;;;;;;4991834;28;20022;-38
2023/09/04 00:41:20;;;;;;;3.17;2.85;;;15.90;99.90;;;;;;4994724;28;20034;-38
2023/09/04 00:43:46;;;;;;;4.30;2.53;;;15.90;99.90;;;;;;4993423;28;20533;-37
2023/09/04 00:46:12;;;;;;;3.58;2.63;;;15.80;99.90;;;;;;4994235;28;20026;-37
2023/09/04 00:48:39;;;;;;;7.25;2.45;;;15.90;99.90;;;;;;4994781;28;20030;-39
2023/09/04 00:51:06;;;;;;;8.13;2.95;;;15.80;99.90;;;;;;4992719;28;20092;-37
2023/09/04 00:53:33;;;;;;;3.70;2.78;;;15.80;99.90;;;;;;4993902;28;20062;-40
2023/09/04 00:56:01;;;;;;;3.55;2.72;;;15.80;99.90;;;;;;4994536;28;20064;-40
2023/09/04 00:58:26;;;;;;;3.58;2.80;;;15.70;99.90;;;;;;4992702;28;20388;-38
2023/09/04 01:00:53;;;;;;;3.00;2.42;;;15.70;99.90;;;;;;4993759;28;20053;-40
2023/09/04 01:03:20;;;;;;;10.13;2.80;;;15.70;99.90;;;;;;4994058;28;20032;-42
2023/09/04 01:05:46;;;;;;;3.10;2.80;;;15.70;99.90;;;;;;4993386;28;20038;-52
2023/09/04 01:08:13;;;;;;;3.03;2.72;;;15.70;99.90;;;;;;4993368;28;20057;-53
2023/09/04 01:10:47;;;;;;;3.40;2.78;;;15.60;99.90;;;;;;4993030;28;20479;-53
2023/09/04 01:13:20;;;;;;;4.00;2.50;;;15.60;99.90;;;;;;4993612;28;20138;-38
2023/09/04 01:15:46;;;;;;;4.50;2.58;;;15.50;99.90;;;;;;4994038;28;20050;-39
2023/09/04 01:18:13;;;;;;;3.88;2.83;;;15.50;99.90;;;;;;4992748;28;20019;-38
2023/09/04 01:20:39;;;;;;;4.03;2.67;;;15.50;99.90;;;;;;4975334;28;20543;-38
2023/09/04 01:23:05;;;;;;;3.92;2.88;;;15.50;99.90;;;;;;4976545;28;20065;-42
2023/09/04 01:25:43;;;;;;;6.45;2.83;;;15.40;99.90;;;;;;4993960;28;20061;-38
2023/09/04 01:28:22;;;;;;;4.68;2.97;;;15.40;99.90;;;;;;4991362;28;20034;-39
2023/09/04 01:31:00;;;;;;;2.90;2.55;;;15.40;99.90;;;;;;4991389;28;20497;-38
2023/09/04 01:33:31;;;;;;;5.28;2.85;;;15.40;99.90;;;;;;4992243;28;20049;-38
2023/09/04 01:36:02;;;;;;;3.10;2.80;;;15.30;99.90;;;;;;4994606;28;20034;-37
2023/09/04 01:38:28;;;;;;;2.85;2.55;;;15.30;99.90;;;;;;4993587;28;20483;-53
2023/09/04 01:40:53;;;;;;;3.85;2.90;;;15.30;99.90;;;;;;4994458;28;20030;-51
2023/09/04 01:43:19;;;;;;;5.63;3.17;;;15.20;99.90;;;;;;4993240;28;20553;-52
2023/09/04 01:45:45;;;;;;;4.10;2.60;;;15.20;99.90;;;;;;4994533;28;20030;-52
2023/09/04 01:48:11;;;;;;;2.97;2.67;;;15.10;99.90;;;;;;4993230;28;20472;-48
2023/09/04 01:50:36;;;;;;;9.27;2.97;;;15.10;99.90;;;;;;4975864;28;20038;-52
2023/09/04 01:53:03;;;;;;;2.95;2.67;;;15.10;99.90;;;;;;4992455;28;20532;-38
2023/09/04 01:55:28;;;;;;;6.18;2.85;;;15.00;99.90;;;;;;4994348;28;20490;-38
2023/09/04 01:57:54;;;;;;;3.83;2.55;;;15.00;99.90;;;;;;4975147;28;20034;-39
2023/09/04 02:00:20;;;;;;;4.43;2.63;;;15.00;99.90;;;;;;4994119;28;20030;-38
2023/09/04 02:02:45;;;;;;;3.28;2.95;;;15.00;99.90;;;;;;4993371;28;20503;-38
2023/09/04 02:05:11;;;;;;;4.10;3.25;;;14.90;99.90;;;;;;4993799;28;20055;-39
2023/09/04 02:07:37;;;;;;;4.07;2.95;;;14.90;99.90;;;;;;4992779;28;20418;-37
2023/09/04 02:10:03;;;;;;;4.78;2.65;;;14.90;99.90;;;;;;4992827;28;20023;-37
2023/09/04 02:12:28;;;;;;;3.28;2.80;;;14.80;99.90;;;;;;4993111;28;20069;-38
2023/09/04 02:14:54;;;;;;;5.57;3.13;;;14.80;99.90;;;;;;4993768;28;20487;-50
2023/09/04 02:17:19;;;;;;;3.75;3.10;;;14.80;99.90;;;;;;4993011;28;20101;-51
2023/09/04 02:19:45;;;;;;;4.07;2.97;;;14.70;99.90;;;;;;4992768;28;20026;-51
2023/09/04 02:22:11;;;;;;;3.25;2.92;;;14.80;99.90;;;;;;4993732;28;20022;-39
2023/09/04 02:24:36;;;;;;;4.10;3.35;;;14.80;99.90;;;;;;4993679;28;20387;-38
2023/09/04 02:27:02;;;;;;;4.82;2.88;;;14.80;99.90;;;;;;4991967;28;20027;-40
2023/09/04 02:29:29;;;;;;;5.25;3.22;;;14.80;99.90;;;;;;4993599;28;20037;-38
2023/09/04 02:31:55;;;;;;;4.03;3.17;;;14.80;99.90;;;;;;4993626;28;20042;-39
2023/09/04 02:34:20;;;;;;;3.90;2.97;;;14.80;99.90;;;;;;5001698;28;20031;-39
2023/09/04 02:36:46;;;;;;;4.43;3.25;;;14.80;99.90;;;;;;4991925;28;20022;-38
2023/09/04 02:39:12;;;;;;;4.90;3.40;;;14.80;99.90;;;;;;4992467;28;20022;-37
2023/09/04 02:41:37;;;;;;;4.68;3.75;;;14.80;99.90;;;;;;4991903;28;20025;-37
2023/09/04 02:44:03;;;;;;;4.43;3.22;;;14.80;99.90;;;;;;4993252;28;20115;-38
2023/09/04 02:46:32;;;;;;;3.33;3.03;;;14.80;99.90;;;;;;4992515;28;20435;-51
2023/09/04 02:48:58;;;;;;;3.70;3.17;;;14.70;99.90;;;;;;4993252;28;20032;-48
2023/09/04 02:51:23;;;;;;;3.53;2.75;;;14.80;99.90;;;;;;4993533;28;20109;-38
2023/09/04 02:53:49;;;;;;;2.90;2.70;;;14.70;99.90;;;;;;4993244;28;20106;-52
2023/09/04 02:56:15;;;;;;;3.47;2.95;;;14.70;99.90;;;;;;4992501;28;20431;-51
2023/09/04 02:58:41;;;;;;;4.13;3.45;;;14.70;99.90;;;;;;4991817;28;20019;-40
2023/09/04 03:01:07;;;;;;;9.25;3.17;;;14.70;99.90;;;;;;4993512;28;20089;-38
2023/09/04 03:03:32;;;;;;;4.40;3.03;;;14.60;99.90;;;;;;4993228;28;20022;-40
2023/09/04 03:06:06;;;;;;;4.10;3.35;;;14.60;99.90;;;;;;4992556;28;20030;-39
2023/09/04 03:08:32;;;;;;;4.05;3.53;;;14.50;99.90;;;;;;4993189;28;20038;-38
2023/09/04 03:10:58;;;;;;;3.35;2.90;;;14.50;99.90;;;;;;4992449;28;20501;-52
2023/09/04 03:13:23;;;;;;;3.63;3.00;;;14.50;99.90;;;;;;4992367;28;20360;-49
2023/09/04 03:15:49;;;;;;;3.22;2.92;;;14.40;99.90;;;;;;4995321;28;20029;-40
2023/09/04 03:18:15;;;;;;;3.10;2.80;;;14.40;99.90;;;;;;4997050;28;20065;-35
2023/09/04 03:20:40;;;;;;;3.42;3.13;;;14.40;99.90;;;;;;4996993;28;20033;-39
2023/09/04 03:23:07;;;;;;;4.85;3.17;;;14.30;99.90;;;;;;4995335;28;20474;-40
2023/09/04 03:25:33;;;;;;;4.85;3.33;;;14.30;99.90;;;;;;4996670;28;20022;-36
2023/09/04 03:27:58;;;;;;;4.65;2.97;;;14.30;99.90;;;;;;4995098;28;20482;-38
2023/09/04 03:30:24;;;;;;;4.57;3.55;;;14.30;99.90;;;;;;4996093;28;20110;-38
2023/09/04 03:32:50;;;;;;;5.60;3.83;;;14.20;99.90;;;;;;4996458;28;20069;-40
2023/09/04 03:35:17;;;;;;;4.78;3.42;;;14.20;99.90;;;;;;5005691;28;20033;-38
2023/09/04 03:37:42;;;;;;;7.57;3.70;;;14.20;99.90;;;;;;4998454;28;20093;-41
2023/09/04 03:40:24;;;;;;;2.63;2.42;;;14.20;99.90;;;;;;4996652;28;20273;-40
2023/09/04 03:42:51;;;;;;;3.67;3.05;;;14.20;99.90;;;;;;4995493;28;20027;-51
2023/09/04 03:45:17;;;;;;;3.90;3.20;;;14.20;99.90;;;;;;4996520;28;20479;-50
2023/09/04 03:47:44;;;;;;;4.78;3.08;;;14.20;99.90;;;;;;4995723;28;20277;-51
2023/09/04 03:50:11;;;;;;;3.05;2.83;;;14.20;99.90;;;;;;4993709;28;20019;-49
2023/09/04 03:52:38;;;;;;;4.22;3.20;;;14.20;99.90;;;;;;4994576;28;20502;-53
2023/09/04 03:55:06;;;;;;;4.97;3.78;;;14.20;99.90;;;;;;4996252;28;20491;-49
2023/09/04 03:57:31;;;;;;;;;;;14.20;99.90;;;;;;4995612;28;20490;-51
2023/09/04 03:59:57;;;;;;;4.82;3.40;;;14.10;99.90;;;;;;4995284;28;19910;-51
2023/09/04 04:02:23;;;;;;;6.35;4.00;;;14.10;99.90;;;;;;4992257;28;20023;-50
2023/09/04 04:04:54;;;;;;;4.53;2.97;;;14.10;99.90;;;;;;4995226;28;20034;-52
2023/09/04 04:07:20;;;;;;;6.68;3.90;;;14.00;99.90;;;;;;4993112;28;20518;-44
2023/09/04 04:09:47;;;;;;;4.28;3.88;;;14.00;99.90;;;;;;4992775;28;20034;-48
2023/09/04 04:12:14;;;;;;;5.03;3.33;;;14.00;99.90;;;;;;4980550;28;20077;-47
2023/09/04 04:14:40;;;;;;;4.55;3.53;;;14.00;99.90;;;;;;4993763;28;20031;-49
2023/09/04 04:17:08;;;;;;;4.15;3.72;;;14.00;99.90;;;;;;4994818;28;20034;-52
2023/09/04 04:19:34;;;;;;;3.95;3.25;;;14.00;99.90;;;;;;4995854;28;20022;-52
2023/09/04 04:21:59;;;;;;;4.93;3.53;;;14.00;99.90;;;;;;4995925;28;20080;-53
2023/09/04 04:24:27;;;;;;;6.15;3.85;;;14.00;99.90;;;;;;4994446;28;20030;-51
2023/09/04 04:26:52;;;;;;;6.60;3.67;;;14.00;99.90;;;;;;4994028;28;20169;-51
2023/09/04 04:29:18;;;;;;;5.07;3.78;;;14.00;99.90;;;;;;4992558;28;20117;-51
2023/09/04 04:31:44;;;;;;;6.22;4.13;;;14.00;99.90;;;;;;4993090;28;20026;-52
2023/09/04 04:34:10;;;;;;;4.22;3.83;;;14.00;99.90;;;;;;4994800;28;20045;-50
2023/09/04 04:36:35;;;;;;;5.35;3.88;;;14.00;99.90;;;;;;5003103;28;20375;-52
2023/09/04 04:39:01;;;;;;;5.20;3.55;;;14.00;99.90;;;;;;5015190;28;20036;-52
2023/09/04 04:41:26;;;;;;;4.72;3.78;;;14.00;99.90;;;;;;4995486;28;20041;-40
2023/09/04 04:43:52;;;;;;;4.50;3.42;;;14.00;99.90;;;;;;4995734;28;20480;-38
2023/09/04 04:46:18;;;;;;;4.43;3.58;;;14.00;99.90;;;;;;4995447;28;20507;-45
2023/09/04 04:48:44;;;;;;;7.93;3.70;;;14.00;99.90;;;;;;4993354;28;20030;-40
2023/09/04 04:51:10;;;;;;;4.05;3.60;;;14.00;99.90;;;;;;4995104;28;20064;-38
2023/09/04 04:53:36;;;;;;;9.25;4.22;;;14.00;99.90;;;;;;4993098;28;20070;-40
2023/09/04 04:56:02;;;;;;;5.45;3.78;;;14.00;99.90;;;;;;4995430;28;20124;-38
2023/09/04 04:58:27;;;;;;;4.45;3.75;;;14.00;99.90;;;;;;4995264;28;20032;-51
2023/09/04 05:00:53;;;;;;;6.93;3.97;;;14.00;99.90;;;;;;4995174;28;20031;-52
2023/09/04 05:03:19;;;;;;;4.65;3.67;;;14.00;99.90;;;;;;4994971;28;20041;-50
2023/09/04 05:05:45;;;;;;;6.68;3.85;;;14.00;99.90;;;;;;4994954;28;20030;-47
2023/09/04 05:08:11;;;;;;;3.42;3.10;;;14.00;99.90;;;;;;4994395;28;20403;-54
2023/09/04 05:10:37;;;;;;;6.20;4.20;;;14.00;99.90;;;;;;4994866;28;20026;-53
2023/09/04 05:13:03;;;;;;;5.82;4.18;;;14.00;99.90;;;;;;4994826;28;20479;-41
2023/09/04 05:15:28;;;;;;;5.28;3.55;;;14.00;99.90;;;;;;4994710;28;20026;-38
2023/09/04 05:17:54;;;;;;;4.80;4.18;;;14.00;99.90;;;;;;4994820;28;20022;-38
2023/09/04 05:20:21;;;;;;;4.93;3.97;;;14.00;99.90;;;;;;4994622;28;20025;-42
2023/09/04 05:22:46;;;;;;;4.80;3.88;;;14.00;99.90;;;;;;4994989;28;20033;-37
2023/09/04 05:25:12;;;;;;;5.10;4.10;;;14.10;99.90;;;;;;4994302;28;20475;-38
2023/09/04 05:27:38;;;;;;;6.00;4.60;;;14.10;99.90;;;;;;4994626;28;20541;-41
2023/09/04 05:30:04;;;;;;;4.88;3.75;;;14.10;99.90;;;;;;4994556;28;20026;-41
2023/09/04 05:32:30;;;;;;;5.50;4.10;;;14.20;99.90;;;;;;4993193;28;20053;-41
2023/09/04 05:34:56;;;;;;;5.75;4.03;;;14.20;99.90;;;;;;4980145;28;20477;-39
2023/09/04 05:37:22;;;;;;;8.02;5.20;;;14.20;99.90;;;;;;4985518;28;20025;-45
2023/09/04 05:39:48;;;;;;;5.22;4.43;;;14.30;99.90;;;;;;4987280;28;20045;-38
2023/09/04 05:42:14;;;;;;;12.40;4.43;;;14.30;99.90;;;;;;4990350;28;20069;-40
2023/09/04 05:44:40;;;;;;;6.13;5.32;;;14.30;99.90;;;;;;4991442;28;20034;-37
2023/09/04 05:47:06;;;;;;;6.82;4.20;;;14.40;99.90;;;;;;4991020;28;20037;-39
2023/09/04 05:49:32;;;;;;;6.38;4.85;;;14.50;99.90;;;;;;4990918;28;20034;-50
2023/09/04 05:51:58;;;;;;;10.55;5.85;;;14.50;99.90;;;;;;4986099;28;20479;-51
2023/09/04 05:54:23;;;;;;;6.55;4.70;;;14.50;99.90;;;;;;4983968;28;20031;-51
2023/09/04 05:56:49;;;;;;;8.73;5.03;;;14.60;99.90;;;;;;4991113;28;20022;-48
2023/09/04 05:59:15;;;;;;;9.00;5.10;;;14.70;99.90;;;;;;4986140;28;20425;-51
2023/09/04 06:01:41;;;;;;;8.85;5.70;;;14.70;99.90;;;;;;4991896;28;20030;-48
2023/09/04 06:04:07;;;;;;;9.32;5.65;;;14.80;99.90;;;;;;4991716;28;20022;-48
2023/09/04 06:06:32;;;;;;;8.70;5.38;;;14.90;99.90;;;;;;4993681;28;20023;-47
2023/09/04 06:09:00;;;;;;;7.03;5.15;;;15.00;99.90;;;;;;4993072;28;20023;-54
2023/09/04 06:11:26;;;;;;;9.85;5.47;;;15.00;99.90;;;;;;4992921;28;20160;-51
2023/09/04 06:13:51;;;;;;;5.80;4.75;;;15.10;99.90;;;;;;4993695;28;20515;-53
2023/09/04 06:16:20;;;;;;;10.02;5.70;;;15.10;99.90;;;;;;4974646;28;20022;-52
2023/09/04 06:18:45;;;;;;;7.60;5.40;;;15.20;99.90;;;;;;4993498;28;20053;-49
2023/09/04 06:21:11;;;;;;;5.78;4.82;;;15.30;99.90;;;;;;4993695;28;20022;-47
2023/09/04 06:23:37;;;;;;;7.93;5.65;;;15.30;99.90;;;;;;4992711;28;20026;-48
2023/09/04 06:26:03;;;;;;;7.15;5.00;;;15.40;99.90;;;;;;4992232;28;20041;-49
2023/09/04 06:28:29;;;;;;;6.90;5.47;;;15.40;99.90;;;;;;4992634;28;20057;-50
2023/09/04 06:30:56;;;;;;;11.85;6.30;;;15.50;99.90;;;;;;4992091;28;20057;-52
2023/09/04 06:33:25;;;;;;;10.27;6.50;;;15.60;99.90;;;;;;4990414;28;20073;-52
2023/09/04 06:35:50;;;;;;;9.35;6.28;;;15.70;99.90;;;;;;4992288;28;20015;-53
2023/09/04 06:38:16;;;;;;;7.30;4.82;;;15.80;99.90;;;;;;4991278;28;20073;-50
2023/09/04 06:40:42;;;;;;;7.68;5.32;;;15.90;99.90;;;;;;4992642;28;20499;-52
2023/09/04 06:43:09;;;;;;;9.50;6.53;;;16.10;99.90;;;;;;4988611;28;20019;-52
2023/09/04 06:45:53;;;;;;;9.57;6.15;;;16.20;99.90;;;;;;4992800;28;20387;-54
2023/09/04 06:48:20;;;;;;;9.05;5.72;;;16.40;99.90;;;;;;4989893;28;20742;-53
2023/09/04 06:50:49;;;;;;;10.93;6.47;;;16.50;99.90;;;;;;4982166;28;20034;-51
2023/09/04 06:53:16;;;;;;;10.15;6.13;;;16.60;99.90;;;;;;4984773;28;20418;-55
2023/09/04 06:55:42;;;;;;;7.95;5.65;;;16.60;99.90;;;;;;4989605;28;20026;-53
2023/09/04 06:58:07;;;;;;;12.70;6.30;;;16.70;99.90;;;;;;4990072;28;20487;-52
2023/09/04 07:00:34;;;;;;;8.57;5.72;;;16.80;99.90;;;;;;4991717;28;20029;-51
2023/09/04 07:03:00;;;;;;;9.67;5.87;;;16.90;99.90;;;;;;4989660;28;20415;-52
2023/09/04 07:05:26;;;;;;;10.85;5.82;;;16.90;99.90;;;;;;4989942;28;20061;-50
2023/09/04 07:07:51;;;;;;;8.57;5.55;;;17.10;99.90;;;;;;4990883;28;20113;-50
2023/09/04 07:10:17;;;;;;;8.95;6.47;;;17.10;99.90;;;;;;4992600;28;20031;-51
2023/09/04 07:12:43;;;;;;;10.88;6.30;;;17.20;99.90;;;;;;4992314;28;20026;-50
2023/09/04 07:15:09;;;;;;;7.03;5.13;;;17.30;99.90;;;;;;4989804;28;20025;-52
2023/09/04 07:17:34;;;;;;;6.20;5.57;;;17.40;99.90;;;;;;4977879;28;20027;-52
2023/09/04 07:20:00;;;;;;;8.10;5.32;;;17.50;99.90;;;;;;4991571;28;20022;-52
2023/09/04 07:22:26;;;;;;;10.02;5.18;;;17.60;99.90;;;;;;4992467;28;20028;-52
2023/09/04 07:24:52;;;;;;;9.80;5.60;;;17.70;99.90;;;;;;4991928;28;20089;-56
2023/09/04 07:27:17;;;;;;;6.15;4.97;;;17.80;99.90;;;;;;4992993;28;20442;-53
2023/09/04 07:29:43;;;;;;;8.05;5.45;;;18.10;99.90;;;;;;4992492;28;20157;-52
2023/09/04 07:32:09;;;;;;;7.28;4.38;;;18.20;99.90;;;;;;4992936;28;20050;-51
2023/09/04 07:34:35;;;;;;;7.50;5.63;;;18.40;99.90;;;;;;4989553;28;20022;-39
2023/09/04 07:37:01;;;;;;;6.95;4.95;;;18.50;99.90;;;;;;4989042;28;20034;-41
2023/09/04 07:39:26;;;;;;;6.72;5.03;;;18.60;99.90;;;;;;4993185;28;20023;-39
2023/09/04 07:41:54;;;;;;;7.32;5.07;;;18.80;99.90;;;;;;4992933;28;20382;-37
2023/09/04 07:44:19;;;;;;;;;;;19.00;99.90;;;;;;4975872;28;20113;-37
2023/09/04 07:46:45;;;;;;;9.50;6.18;;;19.10;99.90;;;;;;4975129;28;20361;-37
2023/09/04 07:49:12;;;;;;;10.10;5.82;;;19.10;99.90;;;;;;4989475;28;20113;-39
2023/09/04 07:51:37;;;;;;;7.05;5.07;;;19.30;99.90;;;;;;4992909;28;20364;-39
2023/09/04 07:54:04;;;;;;;9.50;5.15;;;19.30;99.90;;;;;;4986306;28;20037;-38
2023/09/04 07:56:30;;;;;;;6.40;5.60;;;19.40;99.90;;;;;;4988691;28;20121;-39
2023/09/04 07:58:55;;;;;;;7.05;4.50;;;19.40;99.90;;;;;;4975249;28;20046;-38
2023/09/04 08:01:21;;;;;;;10.50;4.75;;;19.40;99.90;;;;;;4993312;28;20037;-37
2023/09/04 08:03:46;;;;;;;8.52;4.63;;;19.40;99.90;;;;;;4991783;28;20109;-41
2023/09/04 08:06:12;;;;;;;8.40;5.45;;;19.50;99.90;;;;;;4967313;28;20026;-39
2023/09/04 08:08:38;;;;;;;6.72;4.95;;;19.80;99.90;;;;;;4996143;28;20458;-39
2023/09/04 08:11:04;;;;;;;6.93;4.88;;;19.90;99.90;;;;;;4995508;28;20030;-38
2023/09/04 08:13:29;;;;;;;10.73;5.22;;;20.10;99.90;;;;;;4995030;28;20390;-39
2023/09/04 08:15:55;;;;;;;5.15;4.25;;;20.30;99.90;;;;;;4995808;28;20026;-39
2023/09/04 08:18:21;;;;;;;5.93;4.75;;;20.30;99.90;;;;;;4990379;28;20022;-37
2023/09/04 08:20:48;;;;;;;8.57;5.13;;;20.40;99.90;;;;;;4995339;28;20018;-39
2023/09/04 08:23:14;;;;;;;4.55;4.15;;;20.50;99.90;;;;;;4990146;28;20106;-39
2023/09/04 08:25:39;;;;;;;8.85;4.82;;;20.50;99.90;;;;;;4994937;28;20081;-39
2023/09/04 08:28:05;;;;;;;8.63;4.53;;;20.60;99.90;;;;;;4995255;28;20030;-37
2023/09/04 08:30:31;;;;;;;6.13;4.68;;;20.70;99.90;;;;;;5003536;28;20026;-39
2023/09/04 08:32:57;;;;;;;6.50;4.72;;;20.90;99.90;;;;;;5014706;28;20064;-53
2023/09/04 08:35:25;;;;;;;6.00;4.43;;;20.90;99.90;;;;;;4997191;28;20068;-52
2023/09/04 08:37:50;;;;;;;9.00;5.40;;;21.10;99.90;;;;;;4995367;28;20057;-53
2023/09/04 08:40:16;;;;;;;6.90;4.60;;;21.20;99.90;;;;;;4995741;28;20054;-48
2023/09/04 08:42:45;;;;;;;8.82;4.68;;;21.30;99.90;;;;;;4995587;28;20027;-51
2023/09/04 08:45:15;;;;;;;6.95;4.50;;;21.40;99.90;;;;;;4994921;28;20033;-50
2023/09/04 08:47:42;;;;;;;6.72;4.22;;;21.50;99.90;;;;;;4995322;28;20030;-52
2023/09/04 08:50:08;;;;;;;6.97;4.32;;;21.60;99.90;;;;;;4995368;28;20037;-38
2023/09/04 08:52:36;;;;;;;5.93;4.13;;;21.70;99.90;;;;;;4995611;28;20034;-39
2023/09/04 08:55:06;;;;;;;7.78;4.50;;;21.90;99.90;;;;;;4985226;28;20479;-39
2023/09/04 08:57:35;;;;;;;6.25;4.07;;;22.00;99.90;;;;;;4995449;28;20475;-41
2023/09/04 09:00:02;;;;;;;7.35;4.38;;;22.10;99.90;;;;;;4995120;28;20098;-40
2023/09/04 09:02:29;;;;;;;5.32;4.15;;;22.20;99.90;;;;;;4995063;28;20026;-38
2023/09/04 09:04:56;;;;;;;5.53;4.05;;;22.20;99.90;;;;;;4995381;28;20080;-41
2023/09/04 09:07:24;;;;;;;5.07;4.05;;;22.40;99.90;;;;;;4994988;28;20038;-40
2023/09/04 09:09:51;;;;;;;6.22;4.03;;;22.50;99.90;;;;;;4995272;28;20026;-42
2023/09/04 09:12:17;;;;;;;8.23;4.20;;;22.60;99.90;;;;;;4995909;28;20102;-38
2023/09/04 09:14:43;;;;;;;4.38;3.40;;;22.70;99.90;;;;;;5014450;28;20026;-48
2023/09/04 09:17:14;;;;;;;5.57;3.78;;;22.80;99.90;;;;;;5013308;28;20033;-53
2023/09/04 09:19:42;;;;;;;5.20;3.53;;;22.80;99.90;;;;;;4975312;28;20023;-50
2023/09/04 09:22:15;;;;;;;3.95;2.72;;;22.90;99.90;;;;;;4975539;28;20536;-50
2023/09/04 09:25:01;;;;;;;7.15;3.17;;;23.00;99.90;;;;;;4992490;28;20033;-39
2023/09/04 09:27:31;;;;;;;4.07;3.30;;;23.10;99.90;;;;;;4994982;28;20368;-40
2023/09/04 09:29:59;;;;;;;4.95;3.30;;;23.30;99.90;;;;;;4994231;28;20042;-40
2023/09/04 09:32:29;;;;;;;5.30;3.47;;;23.50;99.90;;;;;;4994299;28;20192;-38
2023/09/04 09:34:56;;;;;;;5.45;3.60;;;23.70;99.90;;;;;;4994352;28;20117;-40
2023/09/04 09:37:24;;;;;;;7.35;3.30;;;23.70;99.90;;;;;;4991684;28;20018;-38
2023/09/04 09:39:50;;;;;;;4.35;2.70;;;23.80;99.90;;;;;;4991353;28;20030;-40
2023/09/04 09:42:16;;;;;;;8.02;3.20;;;23.90;99.90;;;;;;4994191;28;20551;-39
2023/09/04 09:44:41;;;;;;;5.20;2.75;;;24.00;99.90;;;;;;4970858;28;20134;-45
2023/09/04 09:47:10;;;;;;;6.97;3.42;;;24.10;99.90;;;;;;4992973;28;20499;-38
2023/09/04 09:49:36;;;;;;;7.82;2.90;;;24.20;99.90;;;;;;4993194;28;20076;-38
2023/09/04 09:52:06;;;;;;;3.22;2.92;;;24.30;99.90;;;;;;4992924;28;20559;-52
2023/09/04 09:54:39;;;;;;;5.15;2.75;;;24.40;99.90;;;;;;4989797;28;20518;-54
2023/09/04 09:57:09;;;;;;;4.40;3.33;;;24.50;99.90;;;;;;4994100;28;20506;-53
2023/09/04 09:59:37;;;;;;;5.22;2.90;;;24.60;99.90;;;;;;4993820;28;20019;-53
2023/09/04 10:02:04;;;;;;;7.63;4.07;;;24.60;99.90;;;;;;4993457;28;20022;-56
2023/09/04 10:04:33;;;;;;;4.63;3.15;;;24.60;99.90;;;;;;4993588;28;20030;-53
2023/09/04 10:07:01;;;;;;;3.65;3.35;;;24.60;99.90;;;;;;4994174;28;20394;-54
2023/09/04 10:09:28;;;;;;;3.13;2.83;;;24.70;99.90;;;;;;4993442;28;20034;-53
2023/09/04 10:12:07;;;;;;;3.13;2.83;;;24.70;99.90;;;;;;4993690;28;20029;-50
2023/09/04 10:14:39;;;;;;;4.05;2.88;;;24.80;99.90;;;;;;4993735;28;20034;-49
2023/09/04 10:17:08;;;;;;;4.90;2.65;;;24.70;99.90;;;;;;5001385;28;20030;-53
2023/09/04 10:19:36;;;;;;;8.70;2.90;;;24.80;99.90;;;;;;4993655;28;20499;-52
2023/09/04 10:22:19;;;;;;;4.72;2.85;;;25.00;99.90;;;;;;4994039;28;20483;-52
2023/09/04 10:24:45;;;;;;;3.42;2.38;;;25.20;99.90;;;;;;4975004;28;20395;-51
2023/09/04 10:27:13;;;;;;;3.10;2.58;;;25.30;99.90;;;;;;4989126;28;20388;-51
2023/09/04 10:29:49;;;;;;;6.65;2.88;;;25.70;99.90;;;;;;4964140;28;20026;-51
2023/09/04 10:32:16;;;;;;;6.15;2.53;;;25.90;99.90;;;;;;4991986;28;20479;-51
2023/09/04 10:34:42;;;;;;;2.97;2.60;;;26.40;99.90;;;;;;4992596;28;20045;-52
2023/09/04 10:37:10;;;;;;;2.38;2.15;;;26.40;99.90;;;;;;4993064;28;20265;-52
2023/09/04 10:39:38;;;;;;;5.00;2.40;;;26.40;99.90;;;;;;4991426;28;20052;-52
2023/09/04 10:42:04;;;;;;;;;;;26.60;99.90;;;;;;4991263;28;20109;-50
2023/09/04 10:44:51;;;;;;;2.77;2.00;;;26.60;99.90;;;;;;4992800;28;19910;-53
2023/09/04 10:47:18;;;;;;;2.40;2.13;;;26.70;99.90;;;;;;4993414;28;20031;-53
2023/09/04 10:49:44;;;;;;;2.72;2.30;;;26.80;99.90;;;;;;4977038;28;20114;-52
2023/09/04 10:52:11;;;;;;;2.78;2.00;;;26.70;99.90;;;;;;4978491;28;20058;-52
2023/09/04 10:54:37;;;;;;;2.00;1.83;;;26.80;99.90;;;;;;4992956;28;20550;-50
2023/09/04 10:57:07;;;;;;;5.80;1.83;;;26.70;99.90;;;;;;4993141;28;20038;-52
2023/09/04 10:59:52;;;;;;;6.30;2.13;;;26.70;99.90;;;;;;4993077;28;20022;-51
2023/09/04 11:02:29;;;;;;;2.72;2.38;;;26.80;99.90;;;;;;4993254;28;20030;-52
2023/09/04 11:04:55;;;;;;;4.20;2.50;;;26.50;99.90;;;;;;4993377;28;20487;-52
2023/09/04 11:07:21;;;;;;;4.97;2.28;;;26.40;99.90;;;;;;4993224;28;20034;-53
2023/09/04 11:09:59;;;;;;;7.70;2.55;;;26.30;99.90;;;;;;4993113;28;20100;-53
2023/09/04 11:12:26;;;;;;;4.10;2.28;;;26.30;99.90;;;;;;4992720;28;20054;-53
2023/09/04 11:14:54;;;;;;;3.33;2.08;;;26.40;99.90;;;;;;4992906;28;20093;-49
2023/09/04 11:17:32;;;;;;;3.92;2.03;;;26.50;99.90;;;;;;4992794;28;20030;-53
2023/09/04 11:20:01;;;;;;;3.17;1.90;;;26.40;99.90;;;;;;4992139;28;20046;-53
2023/09/04 11:22:27;;;;;;;2.45;2.08;;;26.50;99.90;;;;;;4991592;28;20030;-52
2023/09/04 11:24:54;;;;;;;2.70;2.05;;;26.50;99.90;;;;;;4993060;28;20038;-51
2023/09/04 11:27:21;;;;;;;10.00;2.20;;;26.50;99.90;;;;;;4993356;28;20113;-37
2023/09/04 11:29:50;;;;;;;2.25;1.80;;;26.50;99.90;;;;;;4993075;28;20081;-53
2023/09/04 11:32:16;;;;;;;5.10;2.08;;;26.50;99.90;;;;;;4992792;28;20089;-58
2023/09/04 11:34:45;;;;;;;2.47;2.27;;;26.50;99.90;;;;;;4989036;28;20133;-52
2023/09/04 11:37:12;;;;;;;2.92;2.05;;;26.50;99.90;;;;;;4993527;28;20037;-53
2023/09/04 11:39:55;;;;;;;2.50;2.00;;;26.50;99.90;;;;;;4996958;28;20042;-53
2023/09/04 11:42:24;;;;;;;4.63;2.42;;;26.60;99.90;;;;;;4996667;28;20097;-52
2023/09/04 11:44:50;;;;;;;4.45;2.38;;;26.70;99.90;;;;;;4993018;28;20026;-53
2023/09/04 11:47:19;;;;;;;4.90;2.30;;;26.70;99.90;;;;;;4991540;28;20038;-53
2023/09/04 11:49:46;;;;;;;3.67;2.00;;;26.80;99.90;;;;;;4990601;28;20479;-52
2023/09/04 11:52:12;;;;;;;2.60;2.08;;;26.90;99.90;;;;;;4992915;28;20027;-54
2023/09/04 11:54:42;;;;;;;3.97;2.03;;;26.90;99.90;;;;;;4996055;28;20483;-53
2023/09/04 11:57:09;;;;;;;2.00;1.85;;;27.10;99.90;;;;;;4993106;28;20121;-51
2023/09/04 11:59:36;;;;;;;1.98;1.60;;;27.30;99.90;;;;;;4991761;28;20030;-53
2023/09/04 12:02:03;;;;;;;4.60;2.40;;;27.30;99.90;;;;;;4995502;28;20030;-39
2023/09/04 12:04:31;;;;;;;3.03;1.85;;;27.40;99.90;;;;;;4992304;28;20106;-41
2023/09/04 12:07:02;;;;;;;1.88;1.73;;;27.30;99.90;;;;;;4991330;28;20019;-40
2023/09/04 12:09:29;;;;;;;2.78;2.15;;;27.30;99.90;;;;;;4993325;28;20029;-54
2023/09/04 12:11:54;;;;;;;2.58;2.10;;;27.20;99.90;;;;;;4995911;28;20034;-54
2023/09/04 12:14:20;;;;;;;5.50;1.98;;;27.20;99.90;;;;;;4994796;28;20129;-48
2023/09/04 12:16:46;;;;;;;2.53;2.33;;;27.20;99.90;;;;;;4976411;28;20174;-46
2023/09/04 12:19:15;;;;;;;2.00;1.27;;;27.20;99.90;;;;;;4992415;28;20030;-50
2023/09/04 12:21:40;;;;;;;7.97;2.22;;;27.10;99.90;;;;;;4995143;28;20089;-53
2023/09/04 12:24:16;;;;;;;3.08;2.00;;;27.10;99.90;;;;;;4995423;28;20515;-53
2023/09/04 12:26:43;;;;;;;3.03;1.83;;;27.30;99.90;;;;;;4987468;28;20031;-53
2023/09/04 12:29:09;;;;;;;2.67;1.77;;;27.30;99.90;;;;;;4994286;28;20031;-49
2023/09/04 12:31:36;;;;;;;2.30;2.10;;;27.30;99.90;;;;;;4992414;28;20087;-48
2023/09/04 12:34:03;;;;;;;1.92;1.75;;;27.30;99.90;;;;;;4993281;28;20129;-53
2023/09/04 12:36:32;;;;;;;2.78;1.35;;;27.40;99.90;;;;;;4995208;28;20026;-53
2023/09/04 12:38:59;;;;;;;2.20;2.00;;;27.60;99.90;;;;;;4991272;28;20049;-54
2023/09/04 12:41:25;;;;;;;4.03;2.33;;;27.80;99.90;;;;;;4994589;28;20037;-52
2023/09/04 12:43:51;;;;;;;2.83;1.92;;;27.80;99.90;;;;;;4995715;28;20026;-53
2023/09/04 12:46:16;;;;;;;2.00;1.80;;;27.80;99.90;;;;;;4976734;28;20037;-50